Time;durP1;ratioP1;P1;durP2;ratioP2;P2;SDS_P1;SDS_P2;PMS_P1;PMS_P2;Temp;Humidity;BMP_temperature;BMP_pressure;BME280_temperature;BME280_humidity;BME280_pressure;Samples;Min_cycle;Max_cycle;Signal;HPM_P1;HPM_P2
2020/12/12 00:01:53;;;;;;;36.53;23.58;;;4.20;82.30;;;;;;5075353;28;20390;-65
2020/12/12 00:04:19;;;;;;;37.67;26.00;;;4.20;82.20;;;;;;5092919;28;20063;-63
2020/12/12 00:06:45;;;;;;;35.42;23.65;;;4.30;81.80;;;;;;5093229;28;20462;-64
2020/12/12 00:09:11;;;;;;;35.90;24.45;;;4.30;81.80;;;;;;5075500;28;20047;-64
2020/12/12 00:11:36;;;;;;;37.10;23.45;;;4.40;81.60;;;;;;5054786;28;20723;-65
2020/12/12 00:14:02;;;;;;;35.17;24.42;;;4.40;81.40;;;;;;5072388;28;20067;-65
2020/12/12 00:16:27;;;;;;;33.92;23.30;;;4.30;81.20;;;;;;5082269;28;20032;-63
2020/12/12 00:18:53;;;;;;;34.78;23.35;;;4.30;81.30;;;;;;5075014;28;20058;-65
2020/12/12 00:21:21;;;;;;;30.58;22.50;;;4.40;81.30;;;;;;5092581;28;20040;-63
2020/12/12 00:23:48;;;;;;;33.58;24.08;;;4.30;81.00;;;;;;5092696;28;20058;-62
2020/12/12 00:26:18;;;;;;;32.20;23.85;;;4.30;81.30;;;;;;5092590;28;20040;-62
2020/12/12 00:28:43;;;;;;;31.27;22.42;;;4.30;81.20;;;;;;5092937;28;20042;-62
2020/12/12 00:31:09;;;;;;;30.63;21.83;;;4.30;81.00;;;;;;5074500;28;20040;-63
2020/12/12 00:33:34;;;;;;;30.80;22.35;;;4.40;80.80;;;;;;5092246;28;20055;-63
2020/12/12 00:36:00;;;;;;;31.40;21.75;;;4.40;80.20;;;;;;5091780;28;20024;-63
2020/12/12 00:38:25;;;;;;;30.67;22.45;;;4.40;80.10;;;;;;5074800;28;20093;-63
2020/12/12 00:40:56;;;;;;;32.55;21.52;;;4.40;80.20;;;;;;5072942;28;20036;-64
2020/12/12 00:43:22;;;;;;;26.10;20.17;;;4.20;81.00;;;;;;5092027;28;20470;-64
2020/12/12 00:45:49;;;;;;;26.88;20.92;;;4.30;80.60;;;;;;5089484;28;20036;-63
2020/12/12 00:48:14;;;;;;;27.45;20.98;;;4.30;80.50;;;;;;5082538;28;20063;-63
2020/12/12 00:50:47;;;;;;;29.38;21.33;;;4.40;80.30;;;;;;5096410;28;20505;-63
2020/12/12 00:53:12;;;;;;;32.33;22.75;;;4.30;80.20;;;;;;5083923;28;20448;-61
2020/12/12 00:55:38;;;;;;;36.53;24.38;;;4.30;79.80;;;;;;5071154;28;20024;-62
2020/12/12 00:58:03;;;;;;;30.88;21.23;;;4.30;79.90;;;;;;5073160;28;20032;-64
2020/12/12 01:00:32;;;;;;;27.92;19.48;;;4.30;79.60;;;;;;5090901;28;20040;-64
2020/12/12 01:03:00;;;;;;;28.15;20.10;;;4.40;79.50;;;;;;5091918;28;20035;-63
2020/12/12 01:05:25;;;;;;;28.48;20.30;;;4.30;79.80;;;;;;5091765;28;20510;-64
2020/12/12 01:07:51;;;;;;;29.25;20.73;;;4.40;79.60;;;;;;5072708;28;20050;-64
2020/12/12 01:10:16;;;;;;;27.70;19.80;;;4.40;79.50;;;;;;5087294;28;20039;-63
2020/12/12 01:12:42;;;;;;;27.33;20.05;;;4.40;79.10;;;;;;5074948;28;20079;-63
2020/12/12 01:15:08;;;;;;;28.73;20.55;;;4.40;79.20;;;;;;5069256;28;20052;-64
2020/12/12 01:17:34;;;;;;;26.63;19.17;;;4.40;79.10;;;;;;5067582;28;20085;-64
2020/12/12 01:19:59;;;;;;;27.88;19.20;;;4.50;78.90;;;;;;5080071;28;20036;-64
2020/12/12 01:22:25;;;;;;;24.10;18.70;;;4.40;78.60;;;;;;5086498;28;20093;-63
2020/12/12 01:24:51;;;;;;;28.77;20.33;;;4.40;78.90;;;;;;5039457;28;20051;-64
2020/12/12 01:27:17;;;;;;;25.63;19.55;;;4.30;78.80;;;;;;5085954;28;20053;-63
2020/12/12 01:29:43;;;;;;;25.27;19.40;;;4.30;78.90;;;;;;5080638;28;20024;-64
2020/12/12 01:32:09;;;;;;;25.90;19.92;;;4.30;79.10;;;;;;5046847;28;20131;-62
2020/12/12 01:34:34;;;;;;;28.80;19.88;;;4.30;78.60;;;;;;5080362;28;20074;-64
2020/12/12 01:37:02;;;;;;;27.55;19.38;;;4.30;79.10;;;;;;5072592;28;20402;-64
2020/12/12 01:39:28;;;;;;;23.80;19.40;;;4.30;78.90;;;;;;5070800;28;20495;-64
2020/12/12 01:41:54;;;;;;;24.48;18.30;;;4.30;78.70;;;;;;5090815;28;20036;-64
2020/12/12 01:44:20;;;;;;;24.65;18.15;;;4.20;79.10;;;;;;5088946;28;20055;-64
2020/12/12 01:46:48;;;;;;;25.15;18.10;;;4.30;79.00;;;;;;5072520;28;20071;-64
2020/12/12 01:49:14;;;;;;;24.00;18.67;;;4.30;78.60;;;;;;5088764;28;20053;-64
2020/12/12 01:51:41;;;;;;;24.08;18.60;;;4.30;78.50;;;;;;5090340;28;20097;-63
2020/12/12 01:54:08;;;;;;;25.42;19.42;;;4.40;78.60;;;;;;5090093;28;20497;-62
2020/12/12 01:56:35;;;;;;;24.35;18.73;;;4.40;78.30;;;;;;5088504;28;20028;-63
2020/12/12 01:59:00;;;;;;;24.73;17.63;;;4.30;78.80;;;;;;5090190;28;20027;-64
2020/12/12 02:01:27;;;;;;;25.83;19.63;;;4.40;78.40;;;;;;5071567;28;20028;-63
2020/12/12 02:03:55;;;;;;;24.42;18.55;;;4.40;78.50;;;;;;5089834;28;20521;-63
2020/12/12 02:06:21;;;;;;;23.58;19.00;;;4.40;78.30;;;;;;5090675;28;20149;-63
2020/12/12 02:08:53;;;;;;;25.38;18.55;;;4.40;78.40;;;;;;5091183;28;20073;-64
2020/12/12 02:11:20;;;;;;;25.88;19.05;;;4.30;78.50;;;;;;5072004;28;20085;-63
2020/12/12 02:13:47;;;;;;;23.17;18.55;;;4.30;78.80;;;;;;5073485;28;20064;-63
2020/12/12 02:16:17;;;;;;;22.80;17.27;;;4.30;78.50;;;;;;5073240;28;20107;-64
2020/12/12 02:18:43;;;;;;;24.45;18.75;;;4.40;78.70;;;;;;5091290;28;20051;-63
2020/12/12 02:21:08;;;;;;;23.63;18.55;;;4.40;78.60;;;;;;5090837;28;20487;-63
2020/12/12 02:23:35;;;;;;;26.80;19.90;;;4.40;78.80;;;;;;5091012;28;20032;-62
2020/12/12 02:26:01;;;;;;;23.17;18.17;;;4.30;79.60;;;;;;5091054;28;20059;-63
2020/12/12 02:31:08;;;;;;;25.15;18.60;;;4.30;80.00;;;;;;5090974;28;20057;-62
2020/12/12 02:33:34;;;;;;;35.58;23.70;;;4.40;79.90;;;;;;5090763;28;20060;-62
2020/12/12 02:36:00;;;;;;;26.55;20.13;;;4.40;80.20;;;;;;5092829;28;20040;-64
2020/12/12 02:38:25;;;;;;;24.90;20.60;;;4.30;80.80;;;;;;5094892;28;20045;-62
2020/12/12 02:40:51;;;;;;;27.38;20.67;;;4.30;80.90;;;;;;5094580;28;20044;-62
2020/12/12 02:43:17;;;;;;;34.80;19.70;;;4.30;81.00;;;;;;5094293;28;20056;-62
2020/12/12 02:45:47;;;;;;;25.38;20.27;;;4.30;81.30;;;;;;5056621;28;20032;-62
2020/12/12 02:48:13;;;;;;;29.05;20.83;;;4.20;81.70;;;;;;5093073;28;20031;-63
2020/12/12 02:50:40;;;;;;;26.98;20.33;;;4.20;82.30;;;;;;5080146;28;20504;-63
2020/12/12 02:53:05;;;;;;;28.70;21.38;;;4.20;82.40;;;;;;5114447;28;20058;-63
2020/12/12 02:55:31;;;;;;;29.20;20.63;;;4.10;82.80;;;;;;5115410;28;20078;-63
2020/12/12 02:57:57;;;;;;;24.73;18.77;;;4.20;82.70;;;;;;5097033;28;20431;-64
2020/12/12 03:00:24;;;;;;;27.45;21.33;;;4.20;82.30;;;;;;5114802;28;20098;-63
2020/12/12 03:02:50;;;;;;;27.30;20.13;;;4.30;82.10;;;;;;5114369;28;20075;-63
2020/12/12 03:05:16;;;;;;;29.20;20.65;;;4.30;82.50;;;;;;5083479;28;20064;-63
2020/12/12 03:07:42;;;;;;;28.17;20.08;;;4.20;82.40;;;;;;5074343;28;20036;-63
2020/12/12 03:10:08;;;;;;;26.45;20.30;;;4.20;82.90;;;;;;5074734;28;20554;-63
2020/12/12 03:12:35;;;;;;;27.42;21.02;;;4.20;82.70;;;;;;5056226;28;20032;-62
2020/12/12 03:15:01;;;;;;;29.00;20.52;;;4.20;83.10;;;;;;5074429;28;20036;-64
2020/12/12 03:17:26;;;;;;;27.30;20.45;;;4.10;83.40;;;;;;5073842;28;20043;-64
2020/12/12 03:19:52;;;;;;;27.58;20.92;;;4.20;83.00;;;;;;5073995;28;20032;-65
2020/12/12 03:22:18;;;;;;;24.55;20.35;;;4.30;82.70;;;;;;5055748;28;20036;-64
2020/12/12 03:24:43;;;;;;;29.85;21.67;;;4.30;82.90;;;;;;5073471;28;20356;-64
2020/12/12 03:27:09;;;;;;;26.00;19.80;;;4.20;82.90;;;;;;5074132;28;20383;-64
2020/12/12 03:29:37;;;;;;;26.95;21.10;;;4.20;83.10;;;;;;5073622;28;20043;-64
2020/12/12 03:32:05;;;;;;;26.85;21.40;;;4.20;83.20;;;;;;5073565;28;20386;-64
2020/12/12 03:34:31;;;;;;;28.63;20.63;;;4.10;83.50;;;;;;5082538;28;20102;-64
2020/12/12 03:36:56;;;;;;;28.95;20.95;;;4.00;83.80;;;;;;5093826;28;20044;-64
2020/12/12 03:39:22;;;;;;;29.35;21.27;;;4.10;83.80;;;;;;5093720;28;20060;-63
2020/12/12 03:41:47;;;;;;;27.20;20.92;;;4.20;83.40;;;;;;5075369;28;20032;-64
2020/12/12 03:44:13;;;;;;;28.02;21.02;;;4.10;83.20;;;;;;5093072;28;20127;-64
2020/12/12 03:46:38;;;;;;;28.15;20.63;;;4.10;83.40;;;;;;5092914;28;20770;-64
2020/12/12 03:49:04;;;;;;;26.98;21.25;;;4.00;83.50;;;;;;5092246;28;20028;-63
2020/12/12 03:51:30;;;;;;;30.20;21.35;;;4.10;83.70;;;;;;5113983;28;20435;-64
2020/12/12 03:53:55;;;;;;;27.27;21.15;;;4.10;83.20;;;;;;5113577;28;20102;-64
2020/12/12 03:56:21;;;;;;;26.45;20.20;;;4.10;84.00;;;;;;5113686;28;20517;-64
2020/12/12 03:58:46;;;;;;;29.27;21.10;;;4.10;83.60;;;;;;5095394;28;20031;-62
2020/12/12 04:01:12;;;;;;;26.52;20.90;;;4.00;83.70;;;;;;5112227;28;20036;-63
2020/12/12 04:03:37;;;;;;;25.27;19.50;;;4.00;83.90;;;;;;5112489;28;20073;-64
2020/12/12 04:06:03;;;;;;;28.92;21.17;;;4.00;84.00;;;;;;5095219;28;20490;-64
2020/12/12 04:08:28;;;;;;;27.95;21.27;;;4.10;83.50;;;;;;5113648;28;20458;-63
2020/12/12 04:10:54;;;;;;;27.02;21.05;;;4.10;83.40;;;;;;5113558;28;20043;-64
2020/12/12 04:13:20;;;;;;;24.95;19.38;;;4.20;83.40;;;;;;5095169;28;20027;-64
2020/12/12 04:15:46;;;;;;;26.73;20.75;;;4.20;83.50;;;;;;5112823;28;20078;-64
2020/12/12 04:18:11;;;;;;;28.70;21.15;;;4.10;83.60;;;;;;5113285;28;20062;-64
2020/12/12 04:20:37;;;;;;;28.90;21.60;;;4.00;85.30;;;;;;5113333;28;20490;-64
2020/12/12 04:23:02;;;;;;;29.80;21.58;;;3.90;84.50;;;;;;5113545;28;20600;-64
2020/12/12 04:25:28;;;;;;;27.90;21.20;;;4.00;84.50;;;;;;5112928;28;20035;-64
2020/12/12 04:27:53;;;;;;;26.08;20.27;;;3.90;84.50;;;;;;5095013;28;20115;-63
2020/12/12 04:30:19;;;;;;;27.20;20.38;;;3.90;84.50;;;;;;5113060;28;20059;-63
2020/12/12 04:32:45;;;;;;;27.40;20.35;;;4.00;84.60;;;;;;5113084;28;20036;-64
2020/12/12 04:35:10;;;;;;;24.80;20.08;;;4.10;84.30;;;;;;5098227;28;20043;-64
2020/12/12 04:37:36;;;;;;;28.33;20.80;;;4.10;84.20;;;;;;5092709;28;20051;-63
2020/12/12 04:40:03;;;;;;;28.35;21.50;;;4.10;84.40;;;;;;5074271;28;20032;-63
2020/12/12 04:42:31;;;;;;;27.08;20.10;;;4.10;84.40;;;;;;5092047;28;20031;-64
2020/12/12 04:44:58;;;;;;;26.60;19.92;;;4.10;84.40;;;;;;5092001;28;20028;-64
2020/12/12 04:47:24;;;;;;;28.70;20.17;;;4.10;84.60;;;;;;5095604;28;20194;-64
2020/12/12 04:49:50;;;;;;;26.23;20.25;;;4.10;84.60;;;;;;5114595;28;20028;-63
2020/12/12 04:52:18;;;;;;;27.15;20.60;;;4.00;84.80;;;;;;5113897;28;20039;-64
2020/12/12 04:54:47;;;;;;;32.78;20.75;;;4.00;84.80;;;;;;5112357;28;20027;-64
2020/12/12 04:57:13;;;;;;;24.88;20.30;;;4.00;84.90;;;;;;5112599;28;20039;-64
2020/12/12 04:59:42;;;;;;;24.67;19.10;;;4.10;85.00;;;;;;5111901;28;20110;-64
2020/12/12 05:02:12;;;;;;;25.92;19.13;;;4.10;84.80;;;;;;5112316;28;20046;-65
2020/12/12 05:04:41;;;;;;;25.00;19.33;;;4.10;84.40;;;;;;5112270;28;20470;-64
2020/12/12 05:07:08;;;;;;;27.27;20.10;;;4.10;84.70;;;;;;5112496;28;20024;-65
2020/12/12 05:09:33;;;;;;;24.25;18.73;;;4.10;84.60;;;;;;5112385;28;20028;-65
2020/12/12 05:11:59;;;;;;;27.02;20.00;;;4.20;84.20;;;;;;5093932;28;20386;-65
2020/12/12 05:14:25;;;;;;;26.10;19.20;;;4.20;83.80;;;;;;5089109;28;20024;-64
2020/12/12 05:16:54;;;;;;;24.63;18.95;;;4.20;84.00;;;;;;5090366;28;20035;-64
2020/12/12 05:19:21;;;;;;;26.08;19.95;;;4.20;84.40;;;;;;5090941;28;20035;-64
2020/12/12 05:21:48;;;;;;;23.33;18.70;;;4.30;83.80;;;;;;5091060;28;20119;-64
2020/12/12 05:24:14;;;;;;;24.65;18.92;;;4.20;83.80;;;;;;5091526;28;20024;-65
2020/12/12 05:26:42;;;;;;;23.25;17.45;;;4.10;84.40;;;;;;5092085;28;20039;-64
2020/12/12 05:29:08;;;;;;;24.90;18.77;;;4.10;84.60;;;;;;5091708;28;20513;-64
2020/12/12 05:31:35;;;;;;;24.30;18.83;;;4.20;84.30;;;;;;5091847;28;20028;-65
2020/12/12 05:34:14;;;;;;;24.48;18.30;;;4.20;84.00;;;;;;5091633;28;20064;-65
2020/12/12 05:36:42;;;;;;;26.63;20.08;;;4.20;83.80;;;;;;5091576;28;20089;-64
2020/12/12 05:39:13;;;;;;;23.83;19.10;;;4.10;84.50;;;;;;5091798;28;20028;-65
2020/12/12 05:41:40;;;;;;;26.55;19.40;;;4.00;84.90;;;;;;5091643;28;20611;-64
2020/12/12 05:44:06;;;;;;;25.90;19.52;;;4.10;84.80;;;;;;5091393;28;20024;-64
2020/12/12 05:46:32;;;;;;;26.77;20.27;;;4.10;84.80;;;;;;5091754;28;20147;-64
2020/12/12 05:48:58;;;;;;;25.35;18.75;;;4.10;85.00;;;;;;5107708;28;20036;-64
2020/12/12 05:51:30;;;;;;;25.92;19.77;;;4.10;84.90;;;;;;5098478;28;20036;-63
2020/12/12 05:53:57;;;;;;;31.33;21.48;;;4.00;85.20;;;;;;5091853;28;20090;-62
2020/12/12 05:56:26;;;;;;;26.85;20.80;;;4.10;85.30;;;;;;5093623;28;20028;-63
2020/12/12 05:58:54;;;;;;;27.92;18.77;;;4.00;85.20;;;;;;5091739;28;20388;-63
2020/12/12 06:01:21;;;;;;;26.27;18.65;;;4.20;85.00;;;;;;5091619;28;20513;-63
2020/12/12 06:04:01;;;;;;;26.40;19.42;;;4.20;84.50;;;;;;5091487;28;20475;-63
2020/12/12 06:06:27;;;;;;;28.38;20.45;;;4.30;84.50;;;;;;5091520;28;20036;-64
2020/12/12 06:09:08;;;;;;;26.88;20.13;;;4.20;84.60;;;;;;5091524;28;20047;-64
2020/12/12 06:11:38;;;;;;;29.10;19.95;;;4.20;84.70;;;;;;5077727;28;20048;-62
2020/12/12 06:14:05;;;;;;;26.83;19.58;;;4.30;84.90;;;;;;5095165;28;20055;-63
2020/12/12 06:16:33;;;;;;;29.02;19.30;;;4.40;84.40;;;;;;5095420;28;20032;-63
2020/12/12 06:19:15;;;;;;;26.42;18.20;;;4.40;84.50;;;;;;5095533;28;20073;-63
2020/12/12 06:21:46;;;;;;;27.45;19.70;;;4.40;84.40;;;;;;5078629;28;20033;-64
2020/12/12 06:24:14;;;;;;;26.55;19.40;;;4.40;84.20;;;;;;5077757;28;20490;-63
2020/12/12 06:26:46;;;;;;;25.98;18.40;;;4.30;84.50;;;;;;5097226;28;20028;-64
2020/12/12 06:29:14;;;;;;;26.60;18.73;;;4.30;84.30;;;;;;5095607;28;20028;-64
2020/12/12 06:31:42;;;;;;;27.58;19.70;;;4.40;84.30;;;;;;5095081;28;20110;-64
2020/12/12 06:34:08;;;;;;;26.13;18.48;;;4.40;84.20;;;;;;5094674;28;20043;-64
2020/12/12 06:36:34;;;;;;;25.73;19.27;;;4.40;84.00;;;;;;5095241;28;20032;-64
2020/12/12 06:39:25;;;;;;;25.23;18.80;;;4.30;84.10;;;;;;5094929;28;20043;-64
2020/12/12 06:41:55;;;;;;;26.27;19.35;;;4.30;84.20;;;;;;5095140;28;20036;-64
2020/12/12 06:44:34;;;;;;;25.92;18.98;;;4.30;84.30;;;;;;5094801;28;20040;-64
2020/12/12 06:47:00;;;;;;;26.65;18.65;;;4.30;84.20;;;;;;5094766;28;20067;-64
2020/12/12 06:49:26;;;;;;;27.83;19.50;;;4.30;84.20;;;;;;5106200;28;20043;-64
2020/12/12 06:51:52;;;;;;;26.55;18.10;;;4.40;84.00;;;;;;5094921;28;20036;-64
2020/12/12 06:54:19;;;;;;;26.77;18.48;;;4.40;84.20;;;;;;5094623;28;20603;-64
2020/12/12 06:56:45;;;;;;;25.75;18.80;;;4.40;84.10;;;;;;5076868;28;20085;-64
2020/12/12 06:59:37;;;;;;;27.85;18.80;;;4.40;84.10;;;;;;5094441;28;20127;-64
2020/12/12 07:02:04;;;;;;;27.02;18.38;;;4.30;84.60;;;;;;5074675;28;20086;-64
2020/12/12 07:04:33;;;;;;;25.92;19.25;;;4.30;84.60;;;;;;5085132;28;20510;-64
2020/12/12 07:07:11;;;;;;;25.73;17.83;;;4.20;84.80;;;;;;5094437;28;20032;-63
2020/12/12 07:09:41;;;;;;;27.25;19.40;;;4.30;84.50;;;;;;5094717;28;20028;-64
2020/12/12 07:12:07;;;;;;;23.95;18.08;;;4.40;84.00;;;;;;5094113;28;20035;-64
2020/12/12 07:14:33;;;;;;;23.15;17.95;;;4.30;84.20;;;;;;5094213;28;20525;-66
2020/12/12 07:17:00;;;;;;;25.42;18.25;;;4.40;84.60;;;;;;5094592;28;20028;-63
2020/12/12 07:19:40;;;;;;;24.75;18.27;;;4.30;84.60;;;;;;5094390;28;20036;-63
2020/12/12 07:22:10;;;;;;;27.85;19.25;;;4.30;84.70;;;;;;5093586;28;20036;-64
2020/12/12 07:24:37;;;;;;;24.52;19.08;;;4.40;84.70;;;;;;5077664;28;20035;-68
2020/12/12 07:27:04;;;;;;;26.02;18.77;;;4.50;84.20;;;;;;5095050;28;20024;-64
2020/12/12 07:29:30;;;;;;;46.72;28.77;;;4.40;83.90;;;;;;5094769;28;20044;-63
2020/12/12 07:31:57;;;;;;;28.85;20.25;;;4.40;84.90;;;;;;5094196;28;20044;-63
2020/12/12 07:34:24;;;;;;;26.08;18.60;;;4.40;84.40;;;;;;5092507;28;20105;-62
2020/12/12 07:37:01;;;;;;;26.55;19.42;;;4.50;83.70;;;;;;5094179;28;20036;-63
2020/12/12 07:39:35;;;;;;;26.48;18.23;;;4.50;83.70;;;;;;5094411;28;20038;-64
2020/12/12 07:42:02;;;;;;;24.15;18.50;;;4.50;83.50;;;;;;5093862;28;20364;-64
2020/12/12 07:44:32;;;;;;;25.02;17.90;;;4.60;83.40;;;;;;5093698;28;20032;-64
2020/12/12 07:47:00;;;;;;;22.40;17.65;;;4.40;84.10;;;;;;5092963;28;20036;-65
2020/12/12 07:49:26;;;;;;;24.65;19.17;;;4.40;84.00;;;;;;5094097;28;20495;-63
2020/12/12 07:52:06;;;;;;;26.70;17.95;;;4.40;84.10;;;;;;5092616;28;20086;-63
2020/12/12 07:54:52;;;;;;;24.13;18.23;;;4.50;83.80;;;;;;5092136;28;20032;-61
2020/12/12 07:57:17;;;;;;;25.45;18.60;;;4.40;83.90;;;;;;5094227;28;20016;-62
2020/12/12 07:59:43;;;;;;;26.02;19.02;;;4.50;83.80;;;;;;5075758;28;20039;-62
2020/12/12 08:02:11;;;;;;;24.98;18.90;;;4.50;83.80;;;;;;5093841;28;20061;-62
2020/12/12 08:04:37;;;;;;;24.73;18.13;;;4.50;84.00;;;;;;5094075;28;20036;-64
2020/12/12 08:07:18;;;;;;;23.70;17.73;;;4.50;83.80;;;;;;5093439;28;20139;-64
2020/12/12 08:09:51;;;;;;;27.70;19.42;;;4.60;83.70;;;;;;5094000;28;20035;-64
2020/12/12 08:12:33;;;;;;;24.67;18.88;;;4.50;83.70;;;;;;5075396;28;20103;-64
2020/12/12 08:15:25;;;;;;;25.95;18.88;;;4.60;83.80;;;;;;5075465;28;20135;-64
2020/12/12 08:17:51;;;;;;;23.90;17.80;;;4.60;83.30;;;;;;5093523;28;20110;-64
2020/12/12 08:20:24;;;;;;;24.35;18.58;;;4.60;83.20;;;;;;5093422;28;20119;-63
2020/12/12 08:22:50;;;;;;;25.70;18.42;;;4.60;83.40;;;;;;5093180;28;20078;-64
2020/12/12 08:25:17;;;;;;;24.23;17.92;;;4.60;83.40;;;;;;5092803;28;20043;-64
2020/12/12 08:27:43;;;;;;;24.85;18.75;;;4.60;83.40;;;;;;5075028;28;20375;-64
2020/12/12 08:30:09;;;;;;;27.60;20.52;;;4.70;83.50;;;;;;5093546;28;20077;-65
2020/12/12 08:32:40;;;;;;;23.42;18.45;;;4.60;83.40;;;;;;5075139;28;20036;-65
2020/12/12 08:35:13;;;;;;;27.52;19.40;;;4.60;83.70;;;;;;5092968;28;20445;-63
2020/12/12 08:37:40;;;;;;;27.20;19.65;;;4.70;83.50;;;;;;5093258;28;20100;-64
2020/12/12 08:40:10;;;;;;;24.58;19.05;;;4.70;83.20;;;;;;5092332;28;20402;-63
2020/12/12 08:42:36;;;;;;;26.10;20.58;;;4.90;83.00;;;;;;5092857;28;20047;-64
2020/12/12 08:45:15;;;;;;;27.15;18.65;;;4.80;82.80;;;;;;5092840;28;20035;-64
2020/12/12 08:47:41;;;;;;;28.45;19.52;;;4.90;82.60;;;;;;5097804;28;20121;-64
2020/12/12 08:50:07;;;;;;;24.48;19.15;;;4.90;82.70;;;;;;5107690;28;20032;-64
2020/12/12 08:52:33;;;;;;;24.30;18.45;;;5.00;82.70;;;;;;5093023;28;20057;-65
2020/12/12 08:55:04;;;;;;;34.45;21.05;;;5.00;82.10;;;;;;5092650;28;20059;-64
2020/12/12 08:57:30;;;;;;;26.83;18.13;;;5.00;81.80;;;;;;5092545;28;20508;-64
2020/12/12 09:00:04;;;;;;;27.92;19.02;;;5.00;81.90;;;;;;5075013;28;20028;-64
2020/12/12 09:02:30;;;;;;;24.50;18.45;;;5.10;81.70;;;;;;5074629;28;20059;-63
2020/12/12 09:05:09;;;;;;;23.67;17.70;;;5.00;81.70;;;;;;5105484;22;20073;-83
2020/12/12 09:07:35;;;;;;;25.65;18.63;;;5.10;81.50;;;;;;5066068;28;20051;-82
2020/12/12 09:10:12;;;;;;;24.77;18.73;;;5.10;81.30;;;;;;5068407;28;20033;-82
2020/12/12 09:12:50;;;;;;;24.40;17.27;;;5.10;81.10;;;;;;5075365;28;20032;-82
2020/12/12 09:15:18;;;;;;;25.17;18.58;;;5.10;80.70;;;;;;5097072;28;20092;-83
2020/12/12 09:17:59;;;;;;;22.85;18.15;;;5.10;80.80;;;;;;5098291;28;20024;-82
2020/12/12 09:20:27;;;;;;;23.92;17.15;;;5.20;81.20;;;;;;5078596;28;20100;-81
2020/12/12 09:22:53;;;;;;;25.20;18.10;;;5.30;80.30;;;;;;5072324;28;20036;-83
2020/12/12 09:25:18;;;;;;;25.92;19.23;;;5.30;80.20;;;;;;5084828;28;20051;-84
2020/12/12 09:27:47;;;;;;;27.75;19.67;;;5.30;80.20;;;;;;5084609;28;20679;-83
2020/12/12 09:30:16;;;;;;;24.85;18.65;;;5.40;79.90;;;;;;5058618;28;20157;-83
2020/12/12 09:32:41;;;;;;;25.13;18.15;;;5.30;79.80;;;;;;5090268;28;20020;-84
2020/12/12 09:35:07;;;;;;;26.52;18.42;;;5.30;80.00;;;;;;5089524;28;20501;-83
2020/12/12 09:37:33;;;;;;;29.48;18.42;;;5.30;80.10;;;;;;5088252;28;20020;-84
2020/12/12 09:39:58;;;;;;;23.17;18.38;;;5.40;79.80;;;;;;5060993;28;20040;-84
2020/12/12 09:42:27;;;;;;;23.33;17.85;;;5.40;79.60;;;;;;5065920;28;20032;-83
2020/12/12 09:44:53;;;;;;;23.55;18.23;;;5.50;79.30;;;;;;5081672;28;20047;-85
2020/12/12 09:47:18;;;;;;;22.33;17.00;;;5.60;78.80;;;;;;5061836;28;20028;-84
2020/12/12 09:49:44;;;;;;;23.45;17.95;;;5.50;78.70;;;;;;5089788;28;20032;-83
2020/12/12 09:52:09;;;;;;;21.98;16.50;;;5.50;78.90;;;;;;5054544;28;20056;-83
2020/12/12 09:54:35;;;;;;;25.55;17.55;;;5.50;78.50;;;;;;5072857;28;20486;-83
2020/12/12 09:57:01;;;;;;;23.48;17.50;;;5.50;78.30;;;;;;5075679;28;20464;-83
2020/12/12 09:59:27;;;;;;;22.05;17.15;;;5.50;78.70;;;;;;5060168;28;20028;-83
2020/12/12 10:01:52;;;;;;;21.65;16.80;;;5.50;78.90;;;;;;5061058;28;20036;-83
2020/12/12 10:04:18;;;;;;;22.63;17.40;;;5.60;78.00;;;;;;5058878;28;20046;-83
2020/12/12 10:06:44;;;;;;;24.05;17.45;;;5.50;78.30;;;;;;5092673;28;20024;-83
2020/12/12 10:09:10;;;;;;;21.85;16.42;;;5.50;78.60;;;;;;5076198;28;20035;-83
2020/12/12 10:11:35;;;;;;;22.30;16.95;;;5.60;78.50;;;;;;5078787;28;20032;-82
2020/12/12 10:14:01;;;;;;;23.65;17.33;;;5.60;78.40;;;;;;5091446;28;20466;-83
2020/12/12 10:16:27;;;;;;;25.50;18.33;;;5.50;78.50;;;;;;5063964;28;20036;-83
2020/12/12 10:18:52;;;;;;;21.15;16.85;;;5.50;79.00;;;;;;5102486;28;20036;-83
2020/12/12 10:21:18;;;;;;;24.42;18.48;;;5.50;79.50;;;;;;5069083;28;20016;-83
2020/12/12 10:23:46;;;;;;;23.25;16.58;;;5.50;79.20;;;;;;5085679;28;20043;-83
2020/12/12 10:26:12;;;;;;;24.42;17.30;;;5.60;78.90;;;;;;5084407;28;20582;-83
2020/12/12 10:28:40;;;;;;;20.85;16.70;;;5.70;79.40;;;;;;5103576;28;20028;-83
2020/12/12 10:31:06;;;;;;;23.10;17.25;;;5.80;80.00;;;;;;5101702;28;20043;-83
2020/12/12 10:33:33;;;;;;;24.05;16.95;;;6.00;79.00;;;;;;5102515;28;20028;-83
2020/12/12 10:35:59;;;;;;;20.90;16.13;;;5.90;78.80;;;;;;5117789;28;20028;-82
2020/12/12 10:38:24;;;;;;;22.83;17.60;;;6.00;78.90;;;;;;5078231;28;20066;-83
2020/12/12 10:41:00;;;;;;;21.77;16.77;;;6.10;79.60;;;;;;5097273;28;20111;-82
2020/12/12 10:43:26;;;;;;;21.67;17.08;;;6.10;79.00;;;;;;5099457;28;20466;-83
2020/12/12 10:45:53;;;;;;;24.27;18.48;;;6.20;78.60;;;;;;5099406;28;20024;-83
2020/12/12 10:48:19;;;;;;;33.60;26.45;;;6.40;78.50;;;;;;5072263;28;20168;-81
2020/12/12 10:50:45;;;;;;;23.45;18.23;;;6.30;78.50;;;;;;5088471;28;20074;-82
2020/12/12 10:53:11;;;;;;;26.42;18.05;;;6.30;77.90;;;;;;5087028;28;20028;-82
2020/12/12 10:55:36;;;;;;;23.35;18.00;;;6.30;77.80;;;;;;5070114;28;20047;-82
2020/12/12 10:58:05;;;;;;;25.73;18.83;;;6.20;77.70;;;;;;5052971;28;20049;-81
2020/12/12 11:00:40;;;;;;;20.40;17.20;;;6.20;77.80;;;;;;5070883;28;20043;-82
2020/12/12 11:03:07;;;;;;;23.65;18.25;;;6.20;77.50;;;;;;5087117;28;20395;-82
2020/12/12 11:05:32;;;;;;;25.92;18.92;;;6.10;77.80;;;;;;5087477;28;20048;-82
2020/12/12 11:07:58;;;;;;;24.92;18.27;;;6.10;77.90;;;;;;5072349;28;20090;-82
2020/12/12 11:10:26;;;;;;;22.83;18.00;;;6.20;78.20;;;;;;5073935;28;20044;-83
2020/12/12 11:12:52;;;;;;;23.98;17.83;;;6.20;77.90;;;;;;5095106;28;20024;-83
2020/12/12 11:15:18;;;;;;;24.30;18.48;;;6.20;78.20;;;;;;5072184;28;20043;-83
2020/12/12 11:17:44;;;;;;;24.13;18.73;;;6.30;78.20;;;;;;5058863;28;20095;-83
2020/12/12 11:20:11;;;;;;;23.10;17.27;;;6.40;77.50;;;;;;5099192;28;20027;-83
2020/12/12 11:22:37;;;;;;;23.83;17.70;;;6.40;77.40;;;;;;5079548;28;20035;-83
2020/12/12 11:25:06;;;;;;;23.38;18.30;;;6.30;77.40;;;;;;5089571;28;20028;-82
2020/12/12 11:27:32;;;;;;;25.33;18.42;;;6.50;76.70;;;;;;5073216;28;20036;-82
2020/12/12 11:29:58;;;;;;;24.13;18.42;;;6.50;76.80;;;;;;5085432;28;20036;-82
2020/12/12 11:32:24;;;;;;;22.23;17.20;;;6.40;77.00;;;;;;5085031;28;20099;-84
2020/12/12 11:35:00;;;;;;;20.38;17.50;;;6.40;77.10;;;;;;5069827;28;20036;-83
2020/12/12 11:37:38;;;;;;;25.23;18.23;;;6.40;76.80;;;;;;5085864;28;20036;-84
2020/12/12 11:45:40;;;;;;;25.55;18.95;;;6.20;76.90;;;;;;5089542;28;20032;-83
2020/12/12 11:48:06;;;;;;;25.83;18.95;;;6.20;77.60;;;;;;5076446;28;20032;-84
2020/12/12 11:50:35;;;;;;;25.02;18.73;;;6.10;77.70;;;;;;5103916;28;20038;-83
2020/12/12 11:53:00;;;;;;;26.33;18.98;;;6.20;77.90;;;;;;5086428;28;20031;-84
2020/12/12 11:55:27;;;;;;;25.95;18.75;;;6.30;77.80;;;;;;5086462;28;20542;-83
2020/12/12 11:57:55;;;;;;;23.33;17.48;;;6.30;77.80;;;;;;5085415;28;20032;-82
2020/12/12 12:00:21;;;;;;;24.55;19.25;;;6.30;77.70;;;;;;5083067;28;20032;-82
2020/12/12 12:02:47;;;;;;;24.75;18.55;;;6.50;77.60;;;;;;5086656;28;20053;-82
2020/12/12 12:05:16;;;;;;;23.75;17.85;;;6.50;77.70;;;;;;5050614;28;20074;-83
2020/12/12 12:07:45;;;;;;;26.15;18.08;;;6.60;77.50;;;;;;5065759;28;20087;-83
2020/12/12 12:12:46;;;;;;;24.10;18.13;;;6.50;77.30;;;;;;5102739;28;20056;-81
2020/12/12 12:15:12;;;;;;;22.33;17.35;;;6.50;77.30;;;;;;5084464;28;20032;-82
2020/12/12 12:17:38;;;;;;;22.88;17.23;;;6.50;77.20;;;;;;5066815;28;20033;-82
2020/12/12 12:20:05;;;;;;;21.75;16.33;;;6.40;76.90;;;;;;5082608;28;20028;-82
2020/12/12 12:22:31;;;;;;;26.63;17.60;;;6.40;77.20;;;;;;5066386;28;20399;-83
2020/12/12 12:24:57;;;;;;;23.63;18.30;;;6.50;77.00;;;;;;5084608;28;20028;-82
2020/12/12 12:27:23;;;;;;;23.67;17.95;;;6.50;76.70;;;;;;5082741;28;20105;-83
2020/12/12 12:29:49;;;;;;;22.92;17.02;;;6.60;76.80;;;;;;5048791;28;20040;-83
2020/12/12 12:32:15;;;;;;;25.80;18.80;;;6.70;76.40;;;;;;5065247;28;20107;-82
2020/12/12 12:34:40;;;;;;;24.48;18.30;;;6.80;76.30;;;;;;5065192;28;20055;-82
2020/12/12 12:37:07;;;;;;;22.02;17.63;;;6.70;76.20;;;;;;5084821;28;20087;-82
2020/12/12 12:39:32;;;;;;;23.15;16.73;;;6.90;75.80;;;;;;5074571;28;20032;-81
2020/12/12 12:42:04;;;;;;;21.60;16.80;;;7.00;75.70;;;;;;5075632;28;20095;-83
2020/12/12 12:44:33;;;;;;;20.48;15.55;;;7.00;75.60;;;;;;5093570;28;20020;-83
2020/12/12 12:46:58;;;;;;;23.88;17.75;;;7.10;75.50;;;;;;5070943;28;20113;-83
2020/12/12 12:49:24;;;;;;;22.35;16.65;;;7.20;74.80;;;;;;5091478;28;20035;-83